sensor_id;sensor_type;location;lat;lon;timestamp;temperature;humidity
54178;DHT22;40085;53.004;6.770;2022-08-03T00:00:00;19.30;99.90
54178;DHT22;40085;53.004;6.770;2022-08-03T00:02:26;19.30;99.90
54178;DHT22;40085;53.004;6.770;2022-08-03T00:04:52;19.30;99.90
54178;DHT22;40085;53.004;6.770;2022-08-03T00:07:17;19.30;99.90
54178;DHT22;40085;53.004;6.770;2022-08-03T00:09:43;19.30;99.90
54178;DHT22;40085;53.004;6.770;2022-08-03T00:12:09;19.30;99.90
54178;DHT22;40085;53.004;6.770;2022-08-03T00:14:34;19.30;99.90
54178;DHT22;40085;53.004;6.770;2022-08-03T00:17:00;19.30;99.90
54178;DHT22;40085;53.004;6.770;2022-08-03T00:19:26;19.30;99.90
54178;DHT22;40085;53.004;6.770;2022-08-03T00:21:52;19.30;99.90
54178;DHT22;40085;53.004;6.770;2022-08-03T00:24:18;19.20;99.90
54178;DHT22;40085;53.004;6.770;2022-08-03T00:26:44;19.20;99.90
54178;DHT22;40085;53.004;6.770;2022-08-03T00:29:09;19.20;99.90
54178;DHT22;40085;53.004;6.770;2022-08-03T00:31:36;19.20;99.90
54178;DHT22;40085;53.004;6.770;2022-08-03T00:34:01;19.20;99.90
54178;DHT22;40085;53.004;6.770;2022-08-03T00:36:27;19.30;99.90
54178;DHT22;40085;53.004;6.770;2022-08-03T00:38:54;19.30;99.90
54178;DHT22;40085;53.004;6.770;2022-08-03T00:41:19;19.30;99.90
54178;DHT22;40085;53.004;6.770;2022-08-03T00:43:45;19.30;99.90
54178;DHT22;40085;53.004;6.770;2022-08-03T00:46:12;19.20;99.90
54178;DHT22;40085;53.004;6.770;2022-08-03T00:48:39;19.20;99.90
54178;DHT22;40085;53.004;6.770;2022-08-03T00:51:05;19.20;99.90
54178;DHT22;40085;53.004;6.770;2022-08-03T00:53:32;19.20;99.90
54178;DHT22;40085;53.004;6.770;2022-08-03T00:55:59;19.20;99.90
54178;DHT22;40085;53.004;6.770;2022-08-03T00:58:25;19.30;99.90
54178;DHT22;40085;53.004;6.770;2022-08-03T01:00:50;19.30;99.90
54178;DHT22;40085;53.004;6.770;2022-08-03T01:03:16;19.30;99.90
54178;DHT22;40085;53.004;6.770;2022-08-03T01:08:43;19.30;99.90
54178;DHT22;40085;53.004;6.770;2022-08-03T01:14:02;19.30;99.90
54178;DHT22;40085;53.004;6.770;2022-08-03T01:16:37;19.30;99.90
54178;DHT22;40085;53.004;6.770;2022-08-03T01:25:05;19.20;99.90
54178;DHT22;40085;53.004;6.770;2022-08-03T01:30:29;19.20;99.90
54178;DHT22;40085;53.004;6.770;2022-08-03T01:33:02;19.10;99.90
54178;DHT22;40085;53.004;6.770;2022-08-03T01:35:36;19.10;99.90
54178;DHT22;40085;53.004;6.770;2022-08-03T01:38:21;19.10;99.90
54178;DHT22;40085;53.004;6.770;2022-08-03T01:40:49;19.00;99.90
54178;DHT22;40085;53.004;6.770;2022-08-03T01:43:20;19.00;99.90
54178;DHT22;40085;53.004;6.770;2022-08-03T01:45:48;19.00;99.90
54178;DHT22;40085;53.004;6.770;2022-08-03T01:48:16;18.90;99.90
54178;DHT22;40085;53.004;6.770;2022-08-03T01:50:44;18.90;99.90
54178;DHT22;40085;53.004;6.770;2022-08-03T01:53:14;18.90;99.90
54178;DHT22;40085;53.004;6.770;2022-08-03T01:55:43;18.80;99.90
54178;DHT22;40085;53.004;6.770;2022-08-03T01:58:12;18.80;99.90
54178;DHT22;40085;53.004;6.770;2022-08-03T02:00:40;18.70;99.90
54178;DHT22;40085;53.004;6.770;2022-08-03T02:03:06;18.70;99.90
54178;DHT22;40085;53.004;6.770;2022-08-03T02:05:33;18.60;99.90
54178;DHT22;40085;53.004;6.770;2022-08-03T02:08:01;18.60;99.90
54178;DHT22;40085;53.004;6.770;2022-08-03T02:10:29;18.50;99.90
54178;DHT22;40085;53.004;6.770;2022-08-03T02:12:57;18.50;99.90
54178;DHT22;40085;53.004;6.770;2022-08-03T02:15:25;18.50;99.90
54178;DHT22;40085;53.004;6.770;2022-08-03T02:17:53;18.50;99.90
54178;DHT22;40085;53.004;6.770;2022-08-03T02:20:20;18.50;99.90
54178;DHT22;40085;53.004;6.770;2022-08-03T02:22:46;18.50;99.90
54178;DHT22;40085;53.004;6.770;2022-08-03T02:25:14;18.50;99.90
54178;DHT22;40085;53.004;6.770;2022-08-03T02:27:57;18.50;99.90
54178;DHT22;40085;53.004;6.770;2022-08-03T02:30:32;18.50;99.90
54178;DHT22;40085;53.004;6.770;2022-08-03T02:33:03;18.50;99.90
54178;DHT22;40085;53.004;6.770;2022-08-03T02:35:29;18.50;99.90
54178;DHT22;40085;53.004;6.770;2022-08-03T02:38:00;18.50;99.90
54178;DHT22;40085;53.004;6.770;2022-08-03T02:40:28;18.50;99.90
54178;DHT22;40085;53.004;6.770;2022-08-03T02:42:59;18.50;99.90
54178;DHT22;40085;53.004;6.770;2022-08-03T02:45:27;18.50;99.90
54178;DHT22;40085;53.004;6.770;2022-08-03T02:47:58;18.50;99.90
54178;DHT22;40085;53.004;6.770;2022-08-03T02:50:25;18.50;99.90
54178;DHT22;40085;53.004;6.770;2022-08-03T02:52:54;18.50;99.90
54178;DHT22;40085;53.004;6.770;2022-08-03T02:55:21;18.50;99.90
54178;DHT22;40085;53.004;6.770;2022-08-03T02:57:47;18.50;99.90
54178;DHT22;40085;53.004;6.770;2022-08-03T03:00:14;18.50;99.90
54178;DHT22;40085;53.004;6.770;2022-08-03T03:02:41;18.50;99.90
54178;DHT22;40085;53.004;6.770;2022-08-03T03:05:08;18.50;99.90
54178;DHT22;40085;53.004;6.770;2022-08-03T03:07:35;18.50;99.90
54178;DHT22;40085;53.004;6.770;2022-08-03T03:10:03;18.50;99.90
54178;DHT22;40085;53.004;6.770;2022-08-03T03:12:30;18.40;99.90
54178;DHT22;40085;53.004;6.770;2022-08-03T03:14:56;18.40;99.90
54178;DHT22;40085;53.004;6.770;2022-08-03T03:17:23;18.40;99.90
54178;DHT22;40085;53.004;6.770;2022-08-03T03:19:50;18.40;99.90
54178;DHT22;40085;53.004;6.770;2022-08-03T03:22:16;18.40;99.90
54178;DHT22;40085;53.004;6.770;2022-08-03T03:24:43;18.40;99.90
54178;DHT22;40085;53.004;6.770;2022-08-03T03:27:10;18.40;99.90
54178;DHT22;40085;53.004;6.770;2022-08-03T03:29:36;18.40;99.90
54178;DHT22;40085;53.004;6.770;2022-08-03T03:32:02;18.40;99.90
54178;DHT22;40085;53.004;6.770;2022-08-03T03:34:29;18.30;99.90
54178;DHT22;40085;53.004;6.770;2022-08-03T03:36:55;18.30;99.90
54178;DHT22;40085;53.004;6.770;2022-08-03T03:39:20;18.30;99.90
54178;DHT22;40085;53.004;6.770;2022-08-03T03:41:46;18.30;99.90
54178;DHT22;40085;53.004;6.770;2022-08-03T03:44:12;18.30;99.90
54178;DHT22;40085;53.004;6.770;2022-08-03T03:46:38;18.30;99.90
54178;DHT22;40085;53.004;6.770;2022-08-03T03:49:07;18.30;99.90
54178;DHT22;40085;53.004;6.770;2022-08-03T03:51:33;18.20;99.90
54178;DHT22;40085;53.004;6.770;2022-08-03T03:54:02;18.30;99.90
54178;DHT22;40085;53.004;6.770;2022-08-03T03:56:28;18.30;99.90
54178;DHT22;40085;53.004;6.770;2022-08-03T03:58:54;18.20;99.90
54178;DHT22;40085;53.004;6.770;2022-08-03T04:01:21;18.20;99.90
54178;DHT22;40085;53.004;6.770;2022-08-03T04:03:47;18.20;99.90
54178;DHT22;40085;53.004;6.770;2022-08-03T04:06:13;18.20;99.90
54178;DHT22;40085;53.004;6.770;2022-08-03T04:08:59;18.20;99.90
54178;DHT22;40085;53.004;6.770;2022-08-03T04:14:32;18.10;99.90
54178;DHT22;40085;53.004;6.770;2022-08-03T04:17:04;18.20;99.90
54178;DHT22;40085;53.004;6.770;2022-08-03T04:19:44;18.20;99.90
54178;DHT22;40085;53.004;6.770;2022-08-03T04:22:13;18.10;99.90
54178;DHT22;40085;53.004;6.770;2022-08-03T04:24:47;18.20;99.90
54178;DHT22;40085;53.004;6.770;2022-08-03T04:27:15;18.10;99.90
54178;DHT22;40085;53.004;6.770;2022-08-03T04:29:45;18.20;99.90
54178;DHT22;40085;53.004;6.770;2022-08-03T04:32:11;18.20;99.90
54178;DHT22;40085;53.004;6.770;2022-08-03T04:34:38;18.20;99.90
54178;DHT22;40085;53.004;6.770;2022-08-03T04:37:10;18.20;99.90
54178;DHT22;40085;53.004;6.770;2022-08-03T04:39:38;18.20;99.90
54178;DHT22;40085;53.004;6.770;2022-08-03T04:42:07;18.20;99.90
54178;DHT22;40085;53.004;6.770;2022-08-03T04:44:41;18.20;99.90
54178;DHT22;40085;53.004;6.770;2022-08-03T04:47:07;18.20;99.90
54178;DHT22;40085;53.004;6.770;2022-08-03T04:49:35;18.30;99.90
54178;DHT22;40085;53.004;6.770;2022-08-03T04:52:02;18.30;99.90
54178;DHT22;40085;53.004;6.770;2022-08-03T04:54:28;18.30;99.90
54178;DHT22;40085;53.004;6.770;2022-08-03T04:56:53;18.40;99.90
54178;DHT22;40085;53.004;6.770;2022-08-03T04:59:19;18.40;99.90
54178;DHT22;40085;53.004;6.770;2022-08-03T05:01:45;18.40;99.90
54178;DHT22;40085;53.004;6.770;2022-08-03T05:04:10;18.50;99.90
54178;DHT22;40085;53.004;6.770;2022-08-03T05:06:36;18.50;99.90
54178;DHT22;40085;53.004;6.770;2022-08-03T05:09:02;18.50;99.90
54178;DHT22;40085;53.004;6.770;2022-08-03T05:11:28;18.60;99.90
54178;DHT22;40085;53.004;6.770;2022-08-03T05:13:54;18.60;99.90
54178;DHT22;40085;53.004;6.770;2022-08-03T05:16:20;18.70;99.90
54178;DHT22;40085;53.004;6.770;2022-08-03T05:18:45;18.70;99.90
54178;DHT22;40085;53.004;6.770;2022-08-03T05:21:12;18.80;99.90
54178;DHT22;40085;53.004;6.770;2022-08-03T05:23:42;18.80;99.90
54178;DHT22;40085;53.004;6.770;2022-08-03T05:26:07;18.80;99.90
54178;DHT22;40085;53.004;6.770;2022-08-03T05:28:33;18.90;99.90
54178;DHT22;40085;53.004;6.770;2022-08-03T05:30:59;18.90;99.90
54178;DHT22;40085;53.004;6.770;2022-08-03T05:33:24;19.00;99.90
54178;DHT22;40085;53.004;6.770;2022-08-03T05:35:50;19.10;99.90
54178;DHT22;40085;53.004;6.770;2022-08-03T05:38:16;19.20;99.90
54178;DHT22;40085;53.004;6.770;2022-08-03T05:40:41;19.30;99.90
54178;DHT22;40085;53.004;6.770;2022-08-03T05:43:07;19.30;99.90
54178;DHT22;40085;53.004;6.770;2022-08-03T05:45:33;19.40;99.90
54178;DHT22;40085;53.004;6.770;2022-08-03T05:47:58;19.50;99.90
54178;DHT22;40085;53.004;6.770;2022-08-03T05:50:24;19.50;99.90
54178;DHT22;40085;53.004;6.770;2022-08-03T05:52:50;19.50;99.90
54178;DHT22;40085;53.004;6.770;2022-08-03T05:55:15;19.70;99.90
54178;DHT22;40085;53.004;6.770;2022-08-03T05:57:41;19.70;99.90
54178;DHT22;40085;53.004;6.770;2022-08-03T06:00:09;19.70;99.90
54178;DHT22;40085;53.004;6.770;2022-08-03T06:02:35;19.70;99.90
54178;DHT22;40085;53.004;6.770;2022-08-03T06:05:01;19.70;99.90
54178;DHT22;40085;53.004;6.770;2022-08-03T06:07:27;19.80;99.90
54178;DHT22;40085;53.004;6.770;2022-08-03T06:09:53;19.80;99.90
54178;DHT22;40085;53.004;6.770;2022-08-03T06:12:19;19.90;99.90
54178;DHT22;40085;53.004;6.770;2022-08-03T06:14:45;20.00;99.90
54178;DHT22;40085;53.004;6.770;2022-08-03T06:17:10;20.10;99.90
54178;DHT22;40085;53.004;6.770;2022-08-03T06:19:36;20.20;99.90
54178;DHT22;40085;53.004;6.770;2022-08-03T06:22:02;20.20;99.90
54178;DHT22;40085;53.004;6.770;2022-08-03T06:24:28;20.30;99.90
54178;DHT22;40085;53.004;6.770;2022-08-03T06:26:53;20.40;99.90
54178;DHT22;40085;53.004;6.770;2022-08-03T06:29:19;20.40;99.90
54178;DHT22;40085;53.004;6.770;2022-08-03T06:31:45;20.50;99.90
54178;DHT22;40085;53.004;6.770;2022-08-03T06:34:11;20.50;99.90
54178;DHT22;40085;53.004;6.770;2022-08-03T06:36:36;20.50;99.90
54178;DHT22;40085;53.004;6.770;2022-08-03T06:39:03;20.60;99.90
54178;DHT22;40085;53.004;6.770;2022-08-03T06:41:28;20.70;99.90
54178;DHT22;40085;53.004;6.770;2022-08-03T06:43:54;20.60;99.90
54178;DHT22;40085;53.004;6.770;2022-08-03T06:46:20;20.70;99.90
54178;DHT22;40085;53.004;6.770;2022-08-03T06:48:47;20.80;99.90
54178;DHT22;40085;53.004;6.770;2022-08-03T06:51:13;20.90;99.90
54178;DHT22;40085;53.004;6.770;2022-08-03T06:53:39;20.90;99.90
54178;DHT22;40085;53.004;6.770;2022-08-03T06:56:05;20.90;99.90
54178;DHT22;40085;53.004;6.770;2022-08-03T06:58:31;21.00;99.90
54178;DHT22;40085;53.004;6.770;2022-08-03T07:00:57;21.00;99.90
54178;DHT22;40085;53.004;6.770;2022-08-03T07:03:22;21.00;99.90
54178;DHT22;40085;53.004;6.770;2022-08-03T07:05:48;21.10;99.90
54178;DHT22;40085;53.004;6.770;2022-08-03T07:08:15;21.00;99.90
54178;DHT22;40085;53.004;6.770;2022-08-03T07:10:41;21.10;99.90
54178;DHT22;40085;53.004;6.770;2022-08-03T07:13:06;21.10;99.90
54178;DHT22;40085;53.004;6.770;2022-08-03T07:15:33;21.20;99.90
54178;DHT22;40085;53.004;6.770;2022-08-03T07:17:59;21.20;99.90
54178;DHT22;40085;53.004;6.770;2022-08-03T07:20:25;21.20;99.90
54178;DHT22;40085;53.004;6.770;2022-08-03T07:22:50;21.40;99.90
54178;DHT22;40085;53.004;6.770;2022-08-03T07:25:16;21.50;99.90
54178;DHT22;40085;53.004;6.770;2022-08-03T07:27:46;21.50;99.90
54178;DHT22;40085;53.004;6.770;2022-08-03T07:30:13;21.60;99.90
54178;DHT22;40085;53.004;6.770;2022-08-03T07:32:39;21.80;99.90
54178;DHT22;40085;53.004;6.770;2022-08-03T07:35:05;21.90;99.90
54178;DHT22;40085;53.004;6.770;2022-08-03T07:37:32;22.00;99.90
54178;DHT22;40085;53.004;6.770;2022-08-03T07:39:59;22.10;99.90
54178;DHT22;40085;53.004;6.770;2022-08-03T07:42:29;22.10;99.90
54178;DHT22;40085;53.004;6.770;2022-08-03T07:44:55;22.10;99.90
54178;DHT22;40085;53.004;6.770;2022-08-03T07:47:27;22.30;99.90
54178;DHT22;40085;53.004;6.770;2022-08-03T07:49:53;22.30;99.90
54178;DHT22;40085;53.004;6.770;2022-08-03T07:52:19;22.40;99.90
54178;DHT22;40085;53.004;6.770;2022-08-03T07:55:05;22.50;99.90
54178;DHT22;40085;53.004;6.770;2022-08-03T07:57:31;22.70;99.90
54178;DHT22;40085;53.004;6.770;2022-08-03T07:59:57;22.80;99.90
54178;DHT22;40085;53.004;6.770;2022-08-03T08:02:23;22.90;99.90
54178;DHT22;40085;53.004;6.770;2022-08-03T08:04:49;22.90;99.90
54178;DHT22;40085;53.004;6.770;2022-08-03T08:07:14;23.00;99.90
54178;DHT22;40085;53.004;6.770;2022-08-03T08:09:40;23.10;99.90
54178;DHT22;40085;53.004;6.770;2022-08-03T08:12:06;23.10;99.90
54178;DHT22;40085;53.004;6.770;2022-08-03T08:14:33;23.20;99.90
54178;DHT22;40085;53.004;6.770;2022-08-03T08:16:59;23.20;99.90
54178;DHT22;40085;53.004;6.770;2022-08-03T08:19:25;23.20;99.90
54178;DHT22;40085;53.004;6.770;2022-08-03T08:21:50;23.20;99.90
54178;DHT22;40085;53.004;6.770;2022-08-03T08:24:16;23.20;99.90
54178;DHT22;40085;53.004;6.770;2022-08-03T08:26:42;23.20;99.90
54178;DHT22;40085;53.004;6.770;2022-08-03T08:29:07;23.20;99.90
54178;DHT22;40085;53.004;6.770;2022-08-03T08:31:33;23.10;99.90
54178;DHT22;40085;53.004;6.770;2022-08-03T08:33:59;23.00;99.90
54178;DHT22;40085;53.004;6.770;2022-08-03T08:36:31;23.00;99.90
54178;DHT22;40085;53.004;6.770;2022-08-03T08:38:56;22.90;99.90
54178;DHT22;40085;53.004;6.770;2022-08-03T08:41:22;23.00;99.90
54178;DHT22;40085;53.004;6.770;2022-08-03T08:43:47;23.00;99.90
54178;DHT22;40085;53.004;6.770;2022-08-03T08:46:15;23.00;99.90
54178;DHT22;40085;53.004;6.770;2022-08-03T08:48:43;23.10;99.90
54178;DHT22;40085;53.004;6.770;2022-08-03T08:51:11;23.20;99.90
54178;DHT22;40085;53.004;6.770;2022-08-03T08:53:40;23.30;99.90
54178;DHT22;40085;53.004;6.770;2022-08-03T08:56:12;23.50;99.90
54178;DHT22;40085;53.004;6.770;2022-08-03T08:58:45;23.60;99.90
54178;DHT22;40085;53.004;6.770;2022-08-03T09:01:11;23.70;99.90
54178;DHT22;40085;53.004;6.770;2022-08-03T09:03:37;23.80;99.90
54178;DHT22;40085;53.004;6.770;2022-08-03T09:06:03;23.90;99.90
54178;DHT22;40085;53.004;6.770;2022-08-03T09:08:30;24.00;99.90
54178;DHT22;40085;53.004;6.770;2022-08-03T09:10:57;24.10;99.90
54178;DHT22;40085;53.004;6.770;2022-08-03T09:13:22;24.30;99.90
54178;DHT22;40085;53.004;6.770;2022-08-03T09:15:53;24.40;99.90
54178;DHT22;40085;53.004;6.770;2022-08-03T09:18:32;24.60;99.90
54178;DHT22;40085;53.004;6.770;2022-08-03T09:21:12;24.70;99.90
54178;DHT22;40085;53.004;6.770;2022-08-03T09:23:52;24.70;99.90
54178;DHT22;40085;53.004;6.770;2022-08-03T09:26:37;24.70;99.90
54178;DHT22;40085;53.004;6.770;2022-08-03T09:29:09;24.90;99.90
54178;DHT22;40085;53.004;6.770;2022-08-03T09:31:37;24.90;99.90
54178;DHT22;40085;53.004;6.770;2022-08-03T09:34:06;25.20;99.90
54178;DHT22;40085;53.004;6.770;2022-08-03T09:39:03;25.20;99.90
54178;DHT22;40085;53.004;6.770;2022-08-03T09:41:31;25.20;99.90
54178;DHT22;40085;53.004;6.770;2022-08-03T09:43:58;25.10;99.90
54178;DHT22;40085;53.004;6.770;2022-08-03T10:13:37;26.20;99.90
54178;DHT22;40085;53.004;6.770;2022-08-03T10:21:02;26.20;99.90
54178;DHT22;40085;53.004;6.770;2022-08-03T10:23:31;26.20;99.90
54178;DHT22;40085;53.004;6.770;2022-08-03T10:25:58;26.20;99.90
54178;DHT22;40085;53.004;6.770;2022-08-03T10:28:35;26.30;99.90
54178;DHT22;40085;53.004;6.770;2022-08-03T10:31:04;26.30;99.90
54178;DHT22;40085;53.004;6.770;2022-08-03T10:33:37;26.40;99.90
54178;DHT22;40085;53.004;6.770;2022-08-03T10:36:06;26.40;99.90
54178;DHT22;40085;53.004;6.770;2022-08-03T10:38:37;26.40;99.90
54178;DHT22;40085;53.004;6.770;2022-08-03T10:41:05;26.50;99.90
54178;DHT22;40085;53.004;6.770;2022-08-03T10:43:58;26.50;99.90
54178;DHT22;40085;53.004;6.770;2022-08-03T10:46:27;26.50;99.90
54178;DHT22;40085;53.004;6.770;2022-08-03T10:48:54;26.60;99.90
54178;DHT22;40085;53.004;6.770;2022-08-03T10:51:22;26.60;99.90
54178;DHT22;40085;53.004;6.770;2022-08-03T10:53:48;26.50;99.90
54178;DHT22;40085;53.004;6.770;2022-08-03T10:59:19;26.40;99.90
54178;DHT22;40085;53.004;6.770;2022-08-03T11:01:52;26.30;99.90
54178;DHT22;40085;53.004;6.770;2022-08-03T11:04:22;26.20;99.90
54178;DHT22;40085;53.004;6.770;2022-08-03T11:07:21;26.30;99.90
54178;DHT22;40085;53.004;6.770;2022-08-03T11:09:49;26.40;99.90
54178;DHT22;40085;53.004;6.770;2022-08-03T11:12:27;26.50;99.90
54178;DHT22;40085;53.004;6.770;2022-08-03T11:17:21;26.70;99.90
54178;DHT22;40085;53.004;6.770;2022-08-03T11:19:48;26.70;99.90
54178;DHT22;40085;53.004;6.770;2022-08-03T11:22:15;26.70;99.90
54178;DHT22;40085;53.004;6.770;2022-08-03T11:30:09;26.90;99.90
54178;DHT22;40085;53.004;6.770;2022-08-03T11:40:44;27.10;99.90
54178;DHT22;40085;53.004;6.770;2022-08-03T11:48:36;27.10;99.90
54178;DHT22;40085;53.004;6.770;2022-08-03T11:51:05;27.20;99.90
54178;DHT22;40085;53.004;6.770;2022-08-03T11:55:58;27.30;99.90
54178;DHT22;40085;53.004;6.770;2022-08-03T11:58:24;27.40;99.90
54178;DHT22;40085;53.004;6.770;2022-08-03T12:00:50;27.50;99.90
54178;DHT22;40085;53.004;6.770;2022-08-03T12:03:18;27.50;99.90
54178;DHT22;40085;53.004;6.770;2022-08-03T12:05:50;27.40;99.90
54178;DHT22;40085;53.004;6.770;2022-08-03T12:08:38;27.40;99.90
54178;DHT22;40085;53.004;6.770;2022-08-03T12:11:04;27.50;99.90
54178;DHT22;40085;53.004;6.770;2022-08-03T12:13:49;27.60;99.90
54178;DHT22;40085;53.004;6.770;2022-08-03T12:16:20;27.60;99.90
54178;DHT22;40085;53.004;6.770;2022-08-03T12:19:01;27.60;99.90
54178;DHT22;40085;53.004;6.770;2022-08-03T12:21:28;27.70;99.90
54178;DHT22;40085;53.004;6.770;2022-08-03T12:24:02;27.80;99.90
54178;DHT22;40085;53.004;6.770;2022-08-03T12:26:41;27.90;99.90
54178;DHT22;40085;53.004;6.770;2022-08-03T12:29:07;27.90;99.90
54178;DHT22;40085;53.004;6.770;2022-08-03T12:31:34;28.00;99.90
54178;DHT22;40085;53.004;6.770;2022-08-03T12:34:04;28.00;99.90
54178;DHT22;40085;53.004;6.770;2022-08-03T12:36:34;28.10;99.90
54178;DHT22;40085;53.004;6.770;2022-08-03T12:39:07;28.20;99.90
54178;DHT22;40085;53.004;6.770;2022-08-03T12:41:35;28.20;99.90
54178;DHT22;40085;53.004;6.770;2022-08-03T12:44:05;28.40;99.90
54178;DHT22;40085;53.004;6.770;2022-08-03T12:46:36;28.40;99.90
54178;DHT22;40085;53.004;6.770;2022-08-03T12:51:40;28.60;99.90
54178;DHT22;40085;53.004;6.770;2022-08-03T12:54:23;28.70;99.90
54178;DHT22;40085;53.004;6.770;2022-08-03T12:59:29;28.80;99.90
54178;DHT22;40085;53.004;6.770;2022-08-03T13:01:55;28.80;99.90
54178;DHT22;40085;53.004;6.770;2022-08-03T13:04:32;28.80;99.90
54178;DHT22;40085;53.004;6.770;2022-08-03T13:07:04;28.90;99.90
54178;DHT22;40085;53.004;6.770;2022-08-03T13:09:49;28.90;99.90
54178;DHT22;40085;53.004;6.770;2022-08-03T13:12:25;28.90;99.90
54178;DHT22;40085;53.004;6.770;2022-08-03T13:14:54;28.80;99.90
54178;DHT22;40085;53.004;6.770;2022-08-03T13:17:20;28.80;99.90
54178;DHT22;40085;53.004;6.770;2022-08-03T13:19:47;28.80;99.90
54178;DHT22;40085;53.004;6.770;2022-08-03T13:22:22;28.80;99.90
54178;DHT22;40085;53.004;6.770;2022-08-03T13:24:52;28.80;99.90
54178;DHT22;40085;53.004;6.770;2022-08-03T13:27:20;28.80;99.90
54178;DHT22;40085;53.004;6.770;2022-08-03T13:29:46;29.00;99.90
54178;DHT22;40085;53.004;6.770;2022-08-03T13:32:11;29.00;99.90
54178;DHT22;40085;53.004;6.770;2022-08-03T13:34:37;29.10;99.90
54178;DHT22;40085;53.004;6.770;2022-08-03T13:37:04;29.20;99.90
54178;DHT22;40085;53.004;6.770;2022-08-03T13:39:29;29.30;99.90
54178;DHT22;40085;53.004;6.770;2022-08-03T13:41:55;29.30;99.90
54178;DHT22;40085;53.004;6.770;2022-08-03T13:44:21;29.20;99.40
54178;DHT22;40085;53.004;6.770;2022-08-03T13:46:47;29.10;99.90
54178;DHT22;40085;53.004;6.770;2022-08-03T13:49:13;29.10;99.90
54178;DHT22;40085;53.004;6.770;2022-08-03T13:51:39;29.10;99.50
54178;DHT22;40085;53.004;6.770;2022-08-03T13:54:05;29.00;99.20
54178;DHT22;40085;53.004;6.770;2022-08-03T13:56:31;29.00;99.50
54178;DHT22;40085;53.004;6.770;2022-08-03T13:58:57;29.10;99.20
54178;DHT22;40085;53.004;6.770;2022-08-03T14:01:23;29.10;99.20
54178;DHT22;40085;53.004;6.770;2022-08-03T14:03:49;29.20;99.60
54178;DHT22;40085;53.004;6.770;2022-08-03T14:06:19;29.30;99.90
54178;DHT22;40085;53.004;6.770;2022-08-03T14:08:45;29.40;99.90
54178;DHT22;40085;53.004;6.770;2022-08-03T14:11:12;29.30;99.80
54178;DHT22;40085;53.004;6.770;2022-08-03T14:13:38;29.20;99.00
54178;DHT22;40085;53.004;6.770;2022-08-03T14:16:04;29.20;99.30
54178;DHT22;40085;53.004;6.770;2022-08-03T14:18:30;29.10;98.70
54178;DHT22;40085;53.004;6.770;2022-08-03T14:21:00;29.10;99.20
54178;DHT22;40085;53.004;6.770;2022-08-03T14:23:26;29.20;99.30
54178;DHT22;40085;53.004;6.770;2022-08-03T14:25:51;29.20;99.90
54178;DHT22;40085;53.004;6.770;2022-08-03T14:28:18;29.30;99.80
54178;DHT22;40085;53.004;6.770;2022-08-03T14:30:44;29.30;99.50
54178;DHT22;40085;53.004;6.770;2022-08-03T14:33:10;29.30;99.80
54178;DHT22;40085;53.004;6.770;2022-08-03T14:35:36;29.30;99.90
54178;DHT22;40085;53.004;6.770;2022-08-03T14:38:01;29.30;99.40
54178;DHT22;40085;53.004;6.770;2022-08-03T14:40:27;29.20;99.80
54178;DHT22;40085;53.004;6.770;2022-08-03T14:42:52;29.30;99.90
54178;DHT22;40085;53.004;6.770;2022-08-03T14:45:18;29.30;99.90
54178;DHT22;40085;53.004;6.770;2022-08-03T14:47:44;29.40;99.50
54178;DHT22;40085;53.004;6.770;2022-08-03T14:50:09;29.50;99.30
54178;DHT22;40085;53.004;6.770;2022-08-03T14:52:35;29.60;99.50
54178;DHT22;40085;53.004;6.770;2022-08-03T14:55:01;29.90;99.60
54178;DHT22;40085;53.004;6.770;2022-08-03T14:57:26;29.90;98.70
54178;DHT22;40085;53.004;6.770;2022-08-03T14:59:52;30.00;98.70
54178;DHT22;40085;53.004;6.770;2022-08-03T15:02:18;30.00;99.20
54178;DHT22;40085;53.004;6.770;2022-08-03T15:04:44;30.00;99.20
54178;DHT22;40085;53.004;6.770;2022-08-03T15:07:10;30.00;99.10
54178;DHT22;40085;53.004;6.770;2022-08-03T15:09:36;29.90;98.70
54178;DHT22;40085;53.004;6.770;2022-08-03T15:12:04;29.90;99.20
54178;DHT22;40085;53.004;6.770;2022-08-03T15:14:30;29.90;99.20
54178;DHT22;40085;53.004;6.770;2022-08-03T15:16:56;29.90;98.30
54178;DHT22;40085;53.004;6.770;2022-08-03T15:19:21;29.90;97.90
54178;DHT22;40085;53.004;6.770;2022-08-03T15:21:47;29.90;98.00
54178;DHT22;40085;53.004;6.770;2022-08-03T15:24:13;29.80;98.10
54178;DHT22;40085;53.004;6.770;2022-08-03T15:26:39;29.80;97.70
54178;DHT22;40085;53.004;6.770;2022-08-03T15:29:04;29.60;97.20
54178;DHT22;40085;53.004;6.770;2022-08-03T15:31:30;29.50;97.70
54178;DHT22;40085;53.004;6.770;2022-08-03T15:33:56;29.60;96.90
54178;DHT22;40085;53.004;6.770;2022-08-03T15:36:21;29.70;97.30
54178;DHT22;40085;53.004;6.770;2022-08-03T15:38:47;29.80;97.40
54178;DHT22;40085;53.004;6.770;2022-08-03T15:41:13;30.10;97.20
54178;DHT22;40085;53.004;6.770;2022-08-03T15:43:40;30.10;96.90
54178;DHT22;40085;53.004;6.770;2022-08-03T15:46:06;30.10;96.70
54178;DHT22;40085;53.004;6.770;2022-08-03T15:48:32;30.10;96.40
54178;DHT22;40085;53.004;6.770;2022-08-03T15:50:58;30.00;96.40
54178;DHT22;40085;53.004;6.770;2022-08-03T15:53:23;29.90;95.50
54178;DHT22;40085;53.004;6.770;2022-08-03T15:55:49;29.90;95.70
54178;DHT22;40085;53.004;6.770;2022-08-03T15:58:15;29.90;95.60
54178;DHT22;40085;53.004;6.770;2022-08-03T16:00:41;29.90;96.10
54178;DHT22;40085;53.004;6.770;2022-08-03T16:03:07;29.90;96.20
54178;DHT22;40085;53.004;6.770;2022-08-03T16:05:33;29.90;96.30
54178;DHT22;40085;53.004;6.770;2022-08-03T16:07:58;29.90;96.00
54178;DHT22;40085;53.004;6.770;2022-08-03T16:10:24;29.80;96.10
54178;DHT22;40085;53.004;6.770;2022-08-03T16:12:55;29.90;96.40
54178;DHT22;40085;53.004;6.770;2022-08-03T16:15:23;30.00;96.20
54178;DHT22;40085;53.004;6.770;2022-08-03T16:17:49;30.00;95.30
54178;DHT22;40085;53.004;6.770;2022-08-03T16:20:14;30.00;95.60
54178;DHT22;40085;53.004;6.770;2022-08-03T16:22:45;30.20;95.30
54178;DHT22;40085;53.004;6.770;2022-08-03T16:25:12;30.20;95.50
54178;DHT22;40085;53.004;6.770;2022-08-03T16:27:38;30.40;95.40
54178;DHT22;40085;53.004;6.770;2022-08-03T16:30:07;30.50;95.50
54178;DHT22;40085;53.004;6.770;2022-08-03T16:32:34;30.90;95.70
54178;DHT22;40085;53.004;6.770;2022-08-03T16:35:02;31.30;94.50
54178;DHT22;40085;53.004;6.770;2022-08-03T16:37:28;31.60;94.00
54178;DHT22;40085;53.004;6.770;2022-08-03T16:39:54;32.20;94.40
54178;DHT22;40085;53.004;6.770;2022-08-03T16:42:20;33.00;97.80
54178;DHT22;40085;53.004;6.770;2022-08-03T16:44:47;33.50;93.10
54178;DHT22;40085;53.004;6.770;2022-08-03T16:47:13;34.50;93.10
54178;DHT22;40085;53.004;6.770;2022-08-03T16:49:38;35.40;92.70
54178;DHT22;40085;53.004;6.770;2022-08-03T16:52:04;36.00;90.30
54178;DHT22;40085;53.004;6.770;2022-08-03T16:54:30;36.30;90.50
54178;DHT22;40085;53.004;6.770;2022-08-03T16:56:55;36.90;90.10